Time;durP1;ratioP1;P1;durP2;ratioP2;P2;SDS_P1;SDS_P2;PMS_P1;PMS_P2;Temp;Humidity;BMP_temperature;BMP_pressure;BME280_temperature;BME280_humidity;BME280_pressure;Samples;Min_cycle;Max_cycle;Signal;HPM_P1;HPM_P2
2021/01/31 00:00:26;;;;;;;60.77;29.37;;;-4.80;86.80;;;;;;5029935;28;20188;-68
2021/01/31 00:02:52;;;;;;;54.47;28.60;;;-4.80;86.90;;;;;;5029391;28;20037;-66
2021/01/31 00:05:20;;;;;;;63.43;31.77;;;-4.80;87.00;;;;;;5030051;28;20457;-70
2021/01/31 00:07:45;;;;;;;64.27;32.20;;;-4.80;86.90;;;;;;5029898;28;20041;-68
2021/01/31 00:10:14;;;;;;;59.20;31.53;;;-4.80;87.00;;;;;;5012152;28;20452;-68
2021/01/31 00:12:40;;;;;;;71.27;33.57;;;-4.80;87.30;;;;;;5029372;28;20100;-68
2021/01/31 00:15:07;;;;;;;64.70;31.97;;;-4.80;87.30;;;;;;5029932;28;20036;-69
2021/01/31 00:17:33;;;;;;;51.90;26.07;;;-4.80;87.10;;;;;;5029943;28;20037;-69
2021/01/31 00:19:59;;;;;;;55.60;26.30;;;-4.80;87.00;;;;;;4995171;28;20090;-69
2021/01/31 00:22:28;;;;;;;47.20;25.00;;;-4.90;86.80;;;;;;5029461;28;20143;-68
2021/01/31 00:24:54;;;;;;;55.17;25.90;;;-4.90;86.90;;;;;;5012298;28;20125;-68
2021/01/31 00:27:23;;;;;;;47.33;24.23;;;-4.90;87.00;;;;;;5029316;28;20140;-68
2021/01/31 00:29:51;;;;;;;42.57;22.47;;;-5.00;86.80;;;;;;5029624;28;20042;-68
2021/01/31 00:32:25;;;;;;;48.30;22.83;;;-5.00;86.80;;;;;;5028841;28;20129;-69
2021/01/31 00:34:53;;;;;;;46.33;22.77;;;-5.10;87.00;;;;;;5030073;28;20386;-69
2021/01/31 00:37:19;;;;;;;46.93;23.87;;;-5.10;87.20;;;;;;5011785;28;20037;-68
2021/01/31 00:39:50;;;;;;;41.37;21.07;;;-5.10;87.30;;;;;;5012397;28;20252;-69
2021/01/31 00:42:18;;;;;;;50.58;22.52;;;-5.10;87.20;;;;;;5011051;28;20482;-68
2021/01/31 00:44:50;;;;;;;41.33;21.17;;;-5.20;87.30;;;;;;4995843;28;20033;-69
2021/01/31 00:47:17;;;;;;;41.87;21.33;;;-5.20;87.30;;;;;;5031303;28;20042;-68
2021/01/31 00:49:44;;;;;;;40.57;21.23;;;-5.20;87.20;;;;;;5033215;28;20124;-68
2021/01/31 00:52:10;;;;;;;44.97;21.73;;;-5.20;87.20;;;;;;4998975;28;20461;-68
2021/01/31 00:54:37;;;;;;;46.03;23.17;;;-5.30;87.30;;;;;;4999211;28;20359;-68
2021/01/31 00:57:05;;;;;;;43.37;21.07;;;-5.30;87.20;;;;;;5015981;28;20041;-68
2021/01/31 00:59:31;;;;;;;41.87;23.83;;;-5.40;87.40;;;;;;4999982;28;20493;-68
2021/01/31 01:02:05;;;;;;;48.70;24.77;;;-5.40;87.30;;;;;;4998646;28;20265;-68
2021/01/31 01:04:30;;;;;;;49.77;25.03;;;-5.40;87.70;;;;;;4999731;28;20816;-68
2021/01/31 01:07:03;;;;;;;48.93;24.37;;;-5.50;87.20;;;;;;4999973;28;20272;-68
2021/01/31 01:09:29;;;;;;;48.83;24.03;;;-5.50;87.30;;;;;;5033394;28;20272;-68
2021/01/31 01:11:55;;;;;;;48.17;23.60;;;-5.50;87.40;;;;;;5014809;28;20041;-68
2021/01/31 01:14:20;;;;;;;42.10;21.97;;;-5.60;87.40;;;;;;4999635;28;20061;-67
2021/01/31 01:16:46;;;;;;;43.77;22.07;;;-5.60;87.50;;;;;;5015637;28;20053;-68
2021/01/31 01:19:12;;;;;;;42.67;21.87;;;-5.60;87.60;;;;;;5033023;28;20124;-67
2021/01/31 01:21:37;;;;;;;48.13;23.80;;;-5.60;87.50;;;;;;5015044;28;20087;-68
2021/01/31 01:24:03;;;;;;;45.07;22.30;;;-5.60;87.50;;;;;;5032799;28;20049;-67
2021/01/31 01:26:30;;;;;;;46.67;23.70;;;-5.60;87.50;;;;;;5033124;28;20087;-68
2021/01/31 01:28:56;;;;;;;42.50;21.20;;;-5.70;87.40;;;;;;5033201;28;20042;-68
2021/01/31 01:31:22;;;;;;;45.60;22.60;;;-5.70;87.30;;;;;;5032032;28;20796;-68
2021/01/31 01:33:48;;;;;;;43.43;22.40;;;-5.70;87.20;;;;;;5033227;28;20354;-68
2021/01/31 01:36:14;;;;;;;48.57;23.60;;;-5.70;87.40;;;;;;5033126;28;20072;-67
2021/01/31 01:38:39;;;;;;;44.63;21.97;;;-5.70;87.40;;;;;;5032321;28;20117;-67
2021/01/31 01:41:05;;;;;;;43.77;21.93;;;-5.70;87.40;;;;;;5032210;28;20363;-67
2021/01/31 01:43:31;;;;;;;40.17;19.93;;;-5.70;87.40;;;;;;5032228;28;20033;-67
2021/01/31 01:46:12;;;;;;;44.30;22.13;;;-5.80;87.40;;;;;;4998754;28;20037;-67
2021/01/31 01:48:38;;;;;;;46.83;21.97;;;-5.80;87.50;;;;;;5032215;28;20045;-67
2021/01/31 01:51:04;;;;;;;43.30;20.73;;;-5.80;87.50;;;;;;5031868;28;20285;-68
2021/01/31 01:53:29;;;;;;;40.43;21.10;;;-5.80;87.50;;;;;;5032469;28;20045;-67
2021/01/31 01:56:09;;;;;;;42.90;20.17;;;-5.80;87.80;;;;;;5032628;28;20069;-67
2021/01/31 01:58:35;;;;;;;39.60;19.20;;;-5.80;87.90;;;;;;5031508;28;20030;-68
2021/01/31 02:01:02;;;;;;;43.40;20.53;;;-5.70;87.80;;;;;;5013920;28;20830;-68
2021/01/31 02:03:33;;;;;;;42.73;21.30;;;-5.70;87.60;;;;;;5032552;28;20040;-68
2021/01/31 02:06:03;;;;;;;43.67;20.90;;;-5.80;87.30;;;;;;5014475;28;20759;-68
2021/01/31 02:08:29;;;;;;;39.53;20.83;;;-5.80;87.30;;;;;;4999385;28;20276;-68
2021/01/31 02:10:55;;;;;;;41.80;20.67;;;-5.90;87.30;;;;;;5031899;28;20522;-69
2021/01/31 02:13:21;;;;;;;44.03;19.77;;;-5.90;87.40;;;;;;5033184;28;20395;-67
2021/01/31 02:15:47;;;;;;;41.83;20.27;;;-5.90;87.30;;;;;;5033052;28;20041;-68
2021/01/31 02:18:35;;;;;;;43.13;21.07;;;-6.00;87.40;;;;;;5032599;28;20272;-68
2021/01/31 02:21:27;;;;;;;40.77;20.40;;;-6.00;87.50;;;;;;5031853;28;20041;-68
2021/01/31 02:24:11;;;;;;;41.10;20.17;;;-6.00;87.70;;;;;;5015512;28;20690;-68
2021/01/31 02:26:48;;;;;;;39.93;19.93;;;-6.00;87.60;;;;;;5032519;28;20260;-69
2021/01/31 02:29:58;;;;;;;41.57;19.63;;;-6.10;87.70;;;;;;5015329;28;20276;-67
2021/01/31 02:32:35;;;;;;;40.97;19.70;;;-6.10;87.60;;;;;;5014111;28;20272;-68
2021/01/31 02:35:07;;;;;;;38.67;19.80;;;-6.10;87.60;;;;;;5032021;28;20260;-69
2021/01/31 02:37:55;;;;;;;36.97;19.57;;;-6.10;87.60;;;;;;5032634;28;20264;-69
2021/01/31 02:40:39;;;;;;;42.87;19.80;;;-6.20;87.60;;;;;;5031777;28;20307;-66
2021/01/31 02:43:15;;;;;;;38.40;18.57;;;-6.20;87.60;;;;;;5014672;28;20286;-69
2021/01/31 02:45:47;;;;;;;38.87;17.87;;;-6.20;87.70;;;;;;5032219;28;20682;-68
2021/01/31 02:48:15;;;;;;;40.03;19.17;;;-6.20;87.70;;;;;;5014968;28;20275;-68
2021/01/31 02:51:11;;;;;;;37.10;19.00;;;-6.20;87.80;;;;;;5031021;28;20288;-68
2021/01/31 02:53:49;;;;;;;39.53;18.10;;;-6.20;88.00;;;;;;5010285;28;20300;-68
2021/01/31 02:56:39;;;;;;;34.63;17.70;;;-6.10;88.00;;;;;;5032329;28;20275;-69
2021/01/31 02:59:24;;;;;;;34.25;17.98;;;-6.10;87.90;;;;;;5031834;28;20265;-69
2021/01/31 03:02:01;;;;;;;40.77;18.80;;;-6.20;88.50;;;;;;5015393;28;20515;-68
2021/01/31 03:04:48;;;;;;;38.83;19.27;;;-6.20;88.00;;;;;;5031949;28;20279;-68
2021/01/31 03:07:25;;;;;;;35.53;17.97;;;-6.20;87.90;;;;;;5031575;28;20276;-68
2021/01/31 03:10:03;;;;;;;40.47;17.60;;;-6.20;87.70;;;;;;5031586;28;21014;-68
2021/01/31 03:12:37;;;;;;;40.53;19.90;;;-6.20;87.70;;;;;;5013729;28;20264;-68
2021/01/31 03:15:26;;;;;;;38.27;19.50;;;-6.30;87.60;;;;;;5031986;28;20339;-68
2021/01/31 03:18:03;;;;;;;37.13;18.87;;;-6.30;87.70;;;;;;5031652;28;20261;-68
2021/01/31 03:20:34;;;;;;;40.73;19.07;;;-6.30;87.80;;;;;;5031727;28;20256;-68
2021/01/31 03:23:09;;;;;;;37.08;17.60;;;-6.40;87.80;;;;;;5031208;28;20272;-67
2021/01/31 03:25:40;;;;;;;40.23;19.87;;;-6.40;87.80;;;;;;5032031;28;20037;-67
2021/01/31 03:28:06;;;;;;;42.60;19.20;;;-6.40;87.90;;;;;;5031545;28;20272;-68
2021/01/31 03:30:32;;;;;;;39.10;18.60;;;-6.40;87.90;;;;;;5031172;28;20339;-68
2021/01/31 03:33:05;;;;;;;37.37;19.97;;;-6.40;87.90;;;;;;5030802;28;20276;-68
2021/01/31 03:35:52;;;;;;;40.43;19.40;;;-6.40;87.80;;;;;;5031394;28;20064;-68
2021/01/31 03:38:36;;;;;;;38.97;17.60;;;-6.30;88.10;;;;;;5030923;28;20264;-68
2021/01/31 03:41:06;;;;;;;40.83;18.50;;;-6.40;88.20;;;;;;5030944;28;20343;-68
2021/01/31 03:43:32;;;;;;;40.70;19.27;;;-6.40;88.20;;;;;;5031149;28;20753;-68
2021/01/31 03:46:13;;;;;;;40.53;18.60;;;-6.30;88.10;;;;;;5031545;28;20033;-68
2021/01/31 03:48:42;;;;;;;;;;;-6.40;87.90;;;;;;5031723;28;20787;-68
2021/01/31 03:51:09;;;;;;;37.73;17.33;;;-6.40;87.80;;;;;;5012940;28;19917;-68
2021/01/31 03:53:35;;;;;;;38.87;18.93;;;-6.40;87.70;;;;;;5030824;28;20280;-69
2021/01/31 03:56:02;;;;;;;38.97;19.43;;;-6.50;87.70;;;;;;5031110;28;20279;-68
2021/01/31 03:58:27;;;;;;;35.30;17.67;;;-6.50;87.90;;;;;;5030776;28;20567;-68
2021/01/31 04:00:57;;;;;;;35.07;17.70;;;-6.50;87.90;;;;;;5012710;28;20279;-68
2021/01/31 04:03:31;;;;;;;38.57;18.47;;;-6.50;87.80;;;;;;5031230;28;20041;-68
2021/01/31 04:06:11;;;;;;;39.00;18.40;;;-6.50;87.90;;;;;;4996532;28;20292;-67
2021/01/31 04:08:38;;;;;;;38.95;18.63;;;-6.60;87.90;;;;;;5030790;28;20275;-68
2021/01/31 04:11:04;;;;;;;41.27;18.37;;;-6.60;87.90;;;;;;5012514;28;20037;-68
2021/01/31 04:13:33;;;;;;;43.07;19.17;;;-6.50;88.20;;;;;;5031021;28;20637;-68
2021/01/31 04:16:01;;;;;;;41.83;20.20;;;-6.60;88.50;;;;;;5013032;28;20037;-68
2021/01/31 04:18:27;;;;;;;38.90;19.00;;;-6.50;88.40;;;;;;5031186;28;20319;-68
2021/01/31 04:20:53;;;;;;;37.77;18.13;;;-6.50;88.30;;;;;;5030284;28;20268;-68
2021/01/31 04:23:20;;;;;;;42.40;18.50;;;-6.50;88.50;;;;;;5030339;28;20465;-68
2021/01/31 04:25:47;;;;;;;40.30;18.57;;;-6.40;88.40;;;;;;5030824;28;20455;-67
2021/01/31 04:28:22;;;;;;;39.53;17.97;;;-6.40;88.30;;;;;;5012883;28;20351;-69
2021/01/31 04:30:52;;;;;;;39.60;18.50;;;-6.50;88.10;;;;;;5030054;28;20276;-69
2021/01/31 04:33:18;;;;;;;41.13;19.48;;;-6.50;88.00;;;;;;5030495;28;20280;-68
2021/01/31 04:35:43;;;;;;;41.90;18.70;;;-6.50;88.10;;;;;;5030706;28;20045;-68
2021/01/31 04:38:09;;;;;;;38.07;18.23;;;-6.50;88.10;;;;;;5030433;28;20091;-69
2021/01/31 04:40:36;;;;;;;38.80;18.10;;;-6.50;88.10;;;;;;5030474;28;20048;-69
2021/01/31 04:43:06;;;;;;;41.57;18.33;;;-6.50;88.30;;;;;;5013174;28;20044;-68
2021/01/31 04:45:33;;;;;;;42.80;18.98;;;-6.50;88.50;;;;;;5012769;28;20300;-66
2021/01/31 04:48:25;;;;;;;42.30;19.47;;;-6.40;88.70;;;;;;5013015;28;20042;-68
2021/01/31 04:51:02;;;;;;;39.43;18.47;;;-6.40;88.60;;;;;;5029429;28;20288;-68
2021/01/31 04:54:06;;;;;;;37.83;17.67;;;-6.40;88.40;;;;;;5013305;28;20697;-68
2021/01/31 04:56:45;;;;;;;40.63;18.23;;;-6.40;88.70;;;;;;4965332;28;20264;-68
2021/01/31 04:59:27;;;;;;;41.10;18.40;;;-6.50;88.10;;;;;;5030284;28;20760;-67
2021/01/31 05:02:03;;;;;;;37.83;17.90;;;-6.60;88.00;;;;;;5029918;28;20779;-68
2021/01/31 05:04:32;;;;;;;41.23;18.23;;;-6.50;88.20;;;;;;5028526;28;20264;-69
2021/01/31 05:07:04;;;;;;;38.67;17.90;;;-6.50;88.40;;;;;;5012876;28;20276;-67
2021/01/31 05:09:30;;;;;;;42.87;19.27;;;-6.50;88.30;;;;;;5013126;28;20294;-68
2021/01/31 05:12:14;;;;;;;40.27;18.77;;;-6.50;88.40;;;;;;5029635;28;20652;-68
2021/01/31 05:15:09;;;;;;;40.47;17.90;;;-6.50;88.40;;;;;;5012573;28;20087;-69
2021/01/31 05:17:35;;;;;;;39.97;18.70;;;-6.50;88.50;;;;;;5029948;28;20268;-69
2021/01/31 05:20:04;;;;;;;40.57;18.60;;;-6.50;88.50;;;;;;5030084;28;20323;-68
2021/01/31 05:22:34;;;;;;;41.47;17.97;;;-6.50;88.60;;;;;;5012371;28;20636;-68
2021/01/31 05:25:00;;;;;;;42.50;18.57;;;-6.50;88.50;;;;;;5029913;28;20264;-68
2021/01/31 05:27:32;;;;;;;41.63;18.20;;;-6.50;88.50;;;;;;5030446;28;20269;-68
2021/01/31 05:29:57;;;;;;;40.30;17.93;;;-6.50;88.50;;;;;;5029426;28;20741;-68
2021/01/31 05:32:23;;;;;;;41.07;18.40;;;-6.50;88.50;;;;;;5029708;28;20287;-68
2021/01/31 05:34:52;;;;;;;43.53;19.50;;;-6.50;88.60;;;;;;5012886;28;20108;-68
2021/01/31 05:37:18;;;;;;;38.43;17.87;;;-6.50;88.70;;;;;;5013131;28;20188;-68
2021/01/31 05:39:47;;;;;;;32.40;16.57;;;-6.40;88.80;;;;;;5033404;28;20280;-68
2021/01/31 05:42:19;;;;;;;38.23;17.33;;;-6.40;88.80;;;;;;5015155;28;20273;-67
2021/01/31 05:44:56;;;;;;;38.70;17.57;;;-6.40;88.70;;;;;;5034013;28;20272;-68
2021/01/31 05:47:24;;;;;;;37.10;16.77;;;-6.40;88.70;;;;;;5033340;28;20387;-68
2021/01/31 05:49:53;;;;;;;36.30;17.40;;;-6.40;88.40;;;;;;5033217;28;20775;-67
2021/01/31 05:52:19;;;;;;;37.57;17.30;;;-6.50;88.40;;;;;;5032133;28;20288;-68
2021/01/31 05:54:46;;;;;;;39.00;17.33;;;-6.50;88.60;;;;;;5033549;28;20276;-66
2021/01/31 05:57:26;;;;;;;37.60;16.90;;;-6.40;88.70;;;;;;4999251;28;20163;-67
2021/01/31 05:59:53;;;;;;;37.70;17.55;;;-6.40;89.00;;;;;;5033361;28;20279;-68
2021/01/31 06:02:27;;;;;;;43.03;19.00;;;-6.40;89.30;;;;;;5032520;28;20060;-69
2021/01/31 06:05:12;;;;;;;41.67;19.00;;;-6.30;89.70;;;;;;5033579;28;20276;-69
2021/01/31 06:07:40;;;;;;;45.47;20.50;;;-6.20;90.40;;;;;;5015253;28;20754;-68
2021/01/31 06:10:18;;;;;;;50.37;20.60;;;-6.00;90.80;;;;;;5015220;28;20265;-68
2021/01/31 06:12:47;;;;;;;53.37;20.57;;;-5.70;91.30;;;;;;5032740;28;20283;-68
2021/01/31 06:15:21;;;;;;;42.50;20.00;;;-5.40;91.50;;;;;;5033302;28;20268;-68
2021/01/31 06:17:59;;;;;;;39.57;19.07;;;-5.20;91.30;;;;;;5032809;28;20288;-68
2021/01/31 06:20:30;;;;;;;37.60;18.23;;;-4.90;91.20;;;;;;5032807;28;20780;-66
2021/01/31 06:22:57;;;;;;;39.13;19.33;;;-4.70;91.10;;;;;;5014835;28;20260;-69
2021/01/31 06:25:25;;;;;;;39.27;19.40;;;-4.50;90.80;;;;;;5033118;28;20036;-68
2021/01/31 06:27:55;;;;;;;39.03;17.63;;;-4.40;90.60;;;;;;5015077;28;20048;-68
2021/01/31 06:30:28;;;;;;;39.17;17.73;;;-4.40;90.50;;;;;;5032523;28;20165;-69
2021/01/31 06:32:54;;;;;;;40.60;19.00;;;-4.30;90.70;;;;;;5032058;28;20034;-68
2021/01/31 06:35:25;;;;;;;33.33;16.70;;;-4.20;90.80;;;;;;5032912;28;20029;-68
2021/01/31 06:38:02;;;;;;;;;;;-4.10;90.90;;;;;;5015460;28;20053;-68
2021/01/31 06:40:55;;;;;;;40.07;17.77;;;-4.00;90.90;;;;;;5014718;28;19923;-68
2021/01/31 06:43:51;;;;;;;38.43;17.33;;;-3.90;90.80;;;;;;5032779;28;20037;-68
2021/01/31 06:46:46;;;;;;;33.83;16.57;;;-3.80;90.80;;;;;;5031752;28;20068;-68
2021/01/31 06:49:31;;;;;;;33.50;15.43;;;-3.70;90.80;;;;;;5032301;28;20444;-69
2021/01/31 06:52:21;;;;;;;34.17;15.93;;;-3.70;90.70;;;;;;5031916;28;20045;-68
2021/01/31 06:55:07;;;;;;;30.42;14.45;;;-3.60;90.80;;;;;;5032345;28;20129;-68
2021/01/31 06:57:55;;;;;;;35.57;16.43;;;-3.50;90.80;;;;;;5032112;28;20466;-68
2021/01/31 07:00:23;;;;;;;38.00;18.83;;;-3.50;90.90;;;;;;4998169;28;20458;-68
2021/01/31 07:03:17;;;;;;;39.37;19.60;;;-3.40;90.90;;;;;;5013885;28;20044;-69
2021/01/31 07:05:53;;;;;;;35.57;17.87;;;-3.30;91.10;;;;;;5031840;28;20040;-69
2021/01/31 07:08:53;;;;;;;36.03;17.00;;;-3.20;90.90;;;;;;5032412;28;20033;-68
2021/01/31 07:11:22;;;;;;;30.53;14.37;;;-3.20;90.80;;;;;;5031244;28;20558;-68
2021/01/31 07:14:12;;;;;;;29.30;15.50;;;-3.10;90.80;;;;;;5032281;28;20541;-70
2021/01/31 07:16:42;;;;;;;29.20;13.63;;;-3.10;90.90;;;;;;5032002;28;20040;-68
2021/01/31 07:19:14;;;;;;;27.65;13.57;;;-3.00;90.90;;;;;;5032191;28;20041;-68
2021/01/31 07:21:52;;;;;;;28.63;12.90;;;-3.00;90.90;;;;;;5031121;28;20037;-68
2021/01/31 07:24:42;;;;;;;28.57;12.90;;;-2.90;90.90;;;;;;5014332;28;20076;-68
2021/01/31 07:27:34;;;;;;;24.57;12.27;;;-2.90;90.80;;;;;;5031634;28;20509;-68
2021/01/31 07:30:04;;;;;;;24.50;11.87;;;-2.80;90.80;;;;;;5013557;28;20072;-67
2021/01/31 07:32:50;;;;;;;28.63;12.20;;;-2.80;91.00;;;;;;5031237;28;20038;-69
2021/01/31 07:35:20;;;;;;;24.60;12.07;;;-2.70;90.80;;;;;;5031658;28;20033;-69
2021/01/31 07:37:49;;;;;;;25.73;11.93;;;-2.70;90.90;;;;;;5031840;28;20520;-69
2021/01/31 07:40:22;;;;;;;23.87;11.47;;;-2.60;91.00;;;;;;5030833;28;20034;-69
2021/01/31 07:42:54;;;;;;;24.47;11.33;;;-2.60;90.80;;;;;;5013783;28;20068;-69
2021/01/31 07:45:24;;;;;;;26.33;12.07;;;-2.50;90.80;;;;;;5031019;28;20050;-68
2021/01/31 07:47:50;;;;;;;24.33;11.67;;;-2.40;91.00;;;;;;5014025;28;20073;-68
2021/01/31 07:50:39;;;;;;;23.33;10.83;;;-2.30;91.20;;;;;;5030600;28;20516;-68
2021/01/31 07:53:07;;;;;;;21.37;9.93;;;-2.20;91.00;;;;;;5031452;28;20036;-68
2021/01/31 07:55:42;;;;;;;22.23;10.23;;;-2.10;90.80;;;;;;5013499;28;20042;-68
2021/01/31 07:58:34;;;;;;;24.30;11.23;;;-2.10;90.70;;;;;;5013137;28;20094;-68
2021/01/31 08:01:00;;;;;;;24.03;10.77;;;-2.00;90.90;;;;;;5030431;28;20041;-68
2021/01/31 08:03:31;;;;;;;19.83;9.93;;;-2.00;90.80;;;;;;5031474;28;20033;-67
2021/01/31 08:06:03;;;;;;;18.63;8.93;;;-1.90;90.70;;;;;;5030672;28;20449;-69
2021/01/31 08:08:50;;;;;;;21.80;9.67;;;-1.80;90.80;;;;;;5033790;28;20144;-67
2021/01/31 08:11:16;;;;;;;20.17;9.57;;;-1.70;90.50;;;;;;5037962;28;20033;-69
2021/01/31 08:13:49;;;;;;;18.23;8.70;;;-1.70;90.80;;;;;;5030839;28;20391;-69
2021/01/31 08:16:40;;;;;;;19.40;9.17;;;-1.50;91.10;;;;;;5030746;28;20045;-69
2021/01/31 08:19:09;;;;;;;19.40;9.30;;;-1.30;91.30;;;;;;5013103;28;20043;-67
2021/01/31 08:22:12;;;;;;;18.60;9.23;;;-1.00;91.10;;;;;;5030321;28;20402;-68
2021/01/31 08:25:00;;;;;;;16.10;8.17;;;-0.90;90.60;;;;;;5038285;28;20071;-68
2021/01/31 08:27:38;;;;;;;21.13;9.40;;;-0.80;90.60;;;;;;5050481;28;20029;-68
2021/01/31 08:30:31;;;;;;;19.30;9.10;;;-0.70;90.50;;;;;;5050664;28;20037;-68
2021/01/31 08:33:03;;;;;;;16.63;8.67;;;-0.60;90.50;;;;;;5050342;28;20493;-68
2021/01/31 08:35:41;;;;;;;18.43;8.80;;;-0.60;90.20;;;;;;5032671;28;20442;-68
2021/01/31 08:38:20;;;;;;;18.00;8.80;;;-0.60;90.00;;;;;;5032857;28;20025;-66
2021/01/31 08:40:58;;;;;;;17.93;8.53;;;-0.60;90.10;;;;;;5050048;28;20067;-68
2021/01/31 08:43:35;;;;;;;19.33;8.30;;;-0.60;90.20;;;;;;5050292;28;20083;-67
2021/01/31 08:46:15;;;;;;;18.00;8.50;;;-0.50;89.60;;;;;;5032297;28;20045;-68
2021/01/31 08:48:42;;;;;;;18.65;9.23;;;-0.60;89.00;;;;;;5016557;28;20072;-66
2021/01/31 08:51:18;;;;;;;18.00;8.73;;;-0.80;88.00;;;;;;5049585;28;20528;-68
2021/01/31 08:53:44;;;;;;;19.13;8.70;;;-0.90;88.90;;;;;;5050358;28;20079;-66
2021/01/31 08:56:26;;;;;;;17.30;8.20;;;-1.00;89.20;;;;;;5045796;28;20058;-67
2021/01/31 08:58:52;;;;;;;16.97;7.90;;;-1.00;88.90;;;;;;5039989;28;20512;-67
2021/01/31 09:01:19;;;;;;;16.63;7.83;;;-1.10;89.60;;;;;;5023401;28;20030;-68
2021/01/31 09:03:46;;;;;;;15.63;7.23;;;-1.00;89.80;;;;;;5038021;28;20047;-68
2021/01/31 09:06:12;;;;;;;15.60;7.83;;;-1.00;90.00;;;;;;5038345;28;20041;-66
2021/01/31 09:08:43;;;;;;;15.50;7.67;;;-0.90;89.70;;;;;;5028051;28;20091;-68
2021/01/31 09:11:12;;;;;;;15.75;7.72;;;-0.80;90.00;;;;;;5042356;28;20640;-66
2021/01/31 09:13:38;;;;;;;15.00;7.10;;;-0.70;90.30;;;;;;5027721;28;20041;-66
2021/01/31 09:16:22;;;;;;;13.10;6.43;;;-0.50;90.00;;;;;;5024172;28;20424;-66
2021/01/31 09:19:05;;;;;;;12.70;6.20;;;0.00;90.70;;;;;;5043156;28;20042;-68
2021/01/31 09:21:33;;;;;;;12.40;5.60;;;0.70;90.60;;;;;;5035709;28;20041;-68
2021/01/31 09:24:00;;;;;;;12.47;6.23;;;1.20;89.20;;;;;;5036027;28;20045;-67
2021/01/31 09:26:28;;;;;;;12.53;6.50;;;1.30;88.10;;;;;;5035818;28;20120;-67
2021/01/31 09:28:55;;;;;;;13.30;6.80;;;1.50;88.90;;;;;;5045680;28;20494;-68
2021/01/31 09:31:22;;;;;;;13.87;6.50;;;1.70;88.20;;;;;;5038306;28;20045;-67
2021/01/31 09:33:53;;;;;;;15.27;7.07;;;1.80;86.20;;;;;;5044495;28;20046;-69
2021/01/31 09:36:29;;;;;;;13.95;6.75;;;2.00;88.30;;;;;;5040233;28;20120;-67
2021/01/31 09:38:57;;;;;;;13.80;7.10;;;2.50;87.60;;;;;;5040295;28;20040;-68
2021/01/31 09:41:25;;;;;;;15.47;7.70;;;2.90;87.30;;;;;;5042850;28;20117;-69
2021/01/31 09:44:06;;;;;;;15.30;7.50;;;3.20;85.30;;;;;;5017502;28;20057;-66
2021/01/31 09:46:33;;;;;;;14.55;7.93;;;3.20;84.70;;;;;;5052702;28;20044;-66
2021/01/31 09:49:20;;;;;;;14.17;7.57;;;3.10;82.00;;;;;;5046837;28;20033;-68
2021/01/31 09:51:47;;;;;;;16.40;8.20;;;2.80;80.80;;;;;;5045477;28;20048;-68
2021/01/31 09:54:18;;;;;;;14.63;7.73;;;2.40;82.70;;;;;;5019275;28;20379;-69
2021/01/31 09:56:55;;;;;;;14.73;7.50;;;2.50;85.00;;;;;;5034586;28;20075;-67
2021/01/31 09:59:30;;;;;;;15.00;7.80;;;2.80;85.60;;;;;;5053372;28;20064;-68
2021/01/31 10:02:10;;;;;;;14.27;7.30;;;3.20;85.10;;;;;;5034060;28;20439;-68
2021/01/31 10:04:38;;;;;;;14.70;7.57;;;3.60;83.10;;;;;;5037196;28;20087;-69
2021/01/31 10:07:08;;;;;;;13.93;7.53;;;3.90;84.10;;;;;;5045126;28;20045;-68
2021/01/31 10:09:37;;;;;;;14.40;7.33;;;4.10;81.70;;;;;;5044880;28;20037;-70
2021/01/31 10:12:23;;;;;;;16.17;7.60;;;4.00;79.50;;;;;;5036324;28;20280;-69
2021/01/31 10:15:34;;;;;;;14.63;7.60;;;3.50;78.30;;;;;;5038561;28;20044;-68
2021/01/31 10:18:00;;;;;;;17.13;8.48;;;3.30;81.40;;;;;;5037192;28;20509;-69
2021/01/31 10:20:36;;;;;;;13.83;7.20;;;3.40;81.60;;;;;;5039449;28;20041;-69
2021/01/31 10:23:07;;;;;;;15.60;8.20;;;3.40;80.50;;;;;;5035303;28;20041;-69
2021/01/31 10:25:36;;;;;;;15.57;8.27;;;3.40;80.50;;;;;;5032897;28;20402;-69
2021/01/31 10:28:02;;;;;;;16.60;8.23;;;3.40;78.40;;;;;;5012198;28;20072;-68
2021/01/31 10:30:50;;;;;;;15.80;8.20;;;3.20;76.70;;;;;;5036352;28;20045;-69
2021/01/31 10:33:38;;;;;;;17.30;8.30;;;2.50;76.00;;;;;;5022110;28;20037;-69
2021/01/31 10:36:16;;;;;;;16.23;8.13;;;2.10;77.40;;;;;;5010981;28;20467;-69
2021/01/31 10:38:44;;;;;;;15.83;8.23;;;1.90;79.00;;;;;;5020590;28;20375;-68
2021/01/31 10:41:11;;;;;;;16.17;8.67;;;2.00;78.70;;;;;;5013005;28;20049;-70
2021/01/31 10:43:37;;;;;;;17.57;8.57;;;2.20;78.60;;;;;;5024996;28;20052;-70
2021/01/31 10:46:02;;;;;;;16.77;8.70;;;2.30;77.60;;;;;;5050644;28;20040;-70
2021/01/31 10:48:28;;;;;;;16.00;8.47;;;2.30;77.70;;;;;;5051935;28;20060;-69
2021/01/31 10:50:54;;;;;;;16.53;8.87;;;2.50;76.90;;;;;;5051850;28;20127;-69
2021/01/31 10:53:20;;;;;;;16.87;8.60;;;2.50;76.40;;;;;;5051816;28;20041;-68
2021/01/31 10:55:46;;;;;;;15.77;8.57;;;2.50;77.40;;;;;;5052507;28;20481;-68
2021/01/31 10:58:12;;;;;;;16.47;8.23;;;2.60;78.10;;;;;;5052548;28;20448;-67
2021/01/31 11:00:38;;;;;;;16.63;8.47;;;2.80;77.90;;;;;;5051241;28;20080;-68
2021/01/31 11:03:05;;;;;;;15.00;8.00;;;2.70;76.30;;;;;;5051364;28;20545;-67
2021/01/31 11:05:33;;;;;;;16.77;8.93;;;2.70;77.10;;;;;;5050805;28;20047;-68
2021/01/31 11:07:59;;;;;;;17.07;8.73;;;2.80;76.10;;;;;;5029996;28;20477;-68
2021/01/31 11:10:25;;;;;;;17.17;8.67;;;3.10;76.60;;;;;;5033947;28;20037;-70
2021/01/31 11:12:50;;;;;;;15.70;8.67;;;4.10;78.60;;;;;;5050409;28;20406;-70
2021/01/31 11:15:18;;;;;;;14.23;7.93;;;5.00;75.60;;;;;;5051280;28;20025;-70
2021/01/31 11:17:44;;;;;;;15.90;8.50;;;4.90;71.40;;;;;;5051493;28;20129;-71
2021/01/31 11:20:10;;;;;;;14.87;8.17;;;4.50;72.30;;;;;;5051571;28;20090;-70
2021/01/31 11:22:36;;;;;;;14.07;8.03;;;4.20;71.00;;;;;;5051628;28;20033;-71
2021/01/31 11:25:03;;;;;;;14.33;7.97;;;3.90;70.40;;;;;;5051321;28;20056;-70
2021/01/31 11:27:29;;;;;;;17.70;8.87;;;3.40;71.30;;;;;;5034177;28;20541;-70
2021/01/31 11:29:55;;;;;;;17.40;9.10;;;3.00;72.00;;;;;;5051025;28;20171;-71
2021/01/31 11:32:21;;;;;;;17.40;8.80;;;2.80;72.80;;;;;;5033341;28;20048;-70
2021/01/31 11:34:47;;;;;;;16.13;9.10;;;2.60;73.50;;;;;;5032665;28;20179;-70
2021/01/31 11:37:12;;;;;;;17.70;9.07;;;2.60;74.20;;;;;;5029916;28;20397;-71
2021/01/31 11:39:38;;;;;;;18.20;8.87;;;2.70;75.20;;;;;;5033769;28;20036;-71
2021/01/31 11:42:04;;;;;;;16.60;8.67;;;2.90;75.50;;;;;;5033207;28;20043;-71
2021/01/31 11:44:30;;;;;;;15.33;8.17;;;2.90;73.70;;;;;;5027498;28;20030;-71
2021/01/31 11:46:55;;;;;;;17.50;9.30;;;3.00;74.60;;;;;;5017779;28;20044;-71
2021/01/31 11:49:21;;;;;;;17.63;8.97;;;3.10;73.20;;;;;;5031019;28;20473;-71
2021/01/31 11:51:47;;;;;;;15.83;8.53;;;3.00;72.70;;;;;;5030570;28;20053;-71
2021/01/31 11:54:13;;;;;;;18.37;9.77;;;2.90;73.20;;;;;;5031326;28;20029;-72
2021/01/31 11:56:38;;;;;;;18.47;9.63;;;3.00;74.00;;;;;;5030590;28;20410;-71
2021/01/31 11:59:04;;;;;;;17.00;9.40;;;2.90;72.50;;;;;;5031596;28;20486;-71
2021/01/31 12:01:30;;;;;;;18.57;10.13;;;2.80;72.80;;;;;;5008400;28;20457;-71
2021/01/31 12:03:55;;;;;;;18.37;9.53;;;2.80;73.60;;;;;;5028450;28;20048;-71
2021/01/31 12:06:21;;;;;;;17.60;9.47;;;2.90;73.50;;;;;;4980171;28;20057;-72
2021/01/31 12:08:47;;;;;;;15.70;8.77;;;3.00;74.20;;;;;;5026348;28;20041;-72
2021/01/31 12:11:13;;;;;;;17.73;9.37;;;3.10;74.40;;;;;;5032196;28;20029;-72
2021/01/31 12:13:38;;;;;;;18.90;9.63;;;3.30;74.60;;;;;;5031852;28;20033;-72
2021/01/31 12:16:05;;;;;;;16.37;9.10;;;3.90;75.20;;;;;;5050250;28;20033;-72
2021/01/31 12:18:30;;;;;;;16.77;9.47;;;5.00;76.20;;;;;;5050109;28;20029;-72
2021/01/31 12:20:56;;;;;;;17.03;9.40;;;6.40;75.20;;;;;;5031440;28;20052;-72
2021/01/31 12:23:22;;;;;;;17.37;9.07;;;7.60;72.90;;;;;;5050856;28;20060;-73
2021/01/31 12:25:48;;;;;;;15.67;9.07;;;8.90;70.90;;;;;;5032917;28;20087;-72
2021/01/31 12:28:17;;;;;;;15.37;8.40;;;10.50;69.20;;;;;;5050167;28;20037;-72
2021/01/31 12:30:43;;;;;;;15.33;8.53;;;12.10;67.20;;;;;;5049858;28;20041;-72
2021/01/31 12:33:09;;;;;;;13.05;8.27;;;13.20;63.60;;;;;;5032282;28;20037;-72
2021/01/31 12:35:36;;;;;;;14.13;8.43;;;13.60;60.80;;;;;;5032988;28;20440;-72
2021/01/31 12:38:01;;;;;;;13.95;8.48;;;13.70;58.70;;;;;;5032347;28;20064;-72
2021/01/31 12:40:29;;;;;;;15.25;8.93;;;13.40;57.30;;;;;;5050216;28;20175;-72
2021/01/31 12:42:55;;;;;;;13.93;8.45;;;13.00;57.30;;;;;;5049530;28;20033;-72
2021/01/31 12:45:22;;;;;;;14.32;8.70;;;12.40;56.20;;;;;;5049892;28;20033;-71
2021/01/31 12:47:48;;;;;;;14.73;8.68;;;11.80;56.80;;;;;;5050415;28;20041;-72
2021/01/31 12:50:16;;;;;;;14.23;8.45;;;11.20;56.60;;;;;;5049680;28;20068;-71
2021/01/31 12:52:42;;;;;;;13.90;8.13;;;10.70;56.60;;;;;;5049820;28;20071;-72
2021/01/31 12:55:10;;;;;;;14.40;8.48;;;9.90;55.20;;;;;;5050025;28;20076;-72
2021/01/31 12:57:37;;;;;;;15.50;8.63;;;9.00;55.40;;;;;;5015642;28;20414;-72